Time;durP1;ratioP1;P1;durP2;ratioP2;P2;SDS_P1;SDS_P2;PMS_P1;PMS_P2;Temp;Humidity;BMP_temperature;BMP_pressure;BME280_temperature;BME280_humidity;BME280_pressure;Samples;Min_cycle;Max_cycle;Signal;HPM_P1;HPM_P2
2023/01/16 00:02:00;;;;;;;8.23;3.42;;;;;;;;;;5037381;28;20079;-71
2023/01/16 00:04:27;;;;;;;7.68;3.40;;;;;;;;;;5053536;28;20056;-71
2023/01/16 00:06:53;;;;;;;8.40;3.40;;;;;;;;;;5055300;28;20063;-71
2023/01/16 00:09:19;;;;;;;8.57;3.60;;;;;;;;;;5054656;28;20183;-70
2023/01/16 00:11:45;;;;;;;8.40;3.13;;;;;;;;;;5052542;28;20041;-71
2023/01/16 00:14:11;;;;;;;9.57;3.63;;;;;;;;;;5036817;28;20103;-71
2023/01/16 00:16:37;;;;;;;8.80;3.47;;;;;;;;;;5053792;28;20041;-70
2023/01/16 00:19:03;;;;;;;11.27;3.30;;;;;;;;;;5053777;28;20044;-71
2023/01/16 00:21:30;;;;;;;11.18;3.25;;;;;;;;;;5053297;28;20041;-70
2023/01/16 00:23:56;;;;;;;8.82;3.45;;;;;;;;;;5053521;28;20048;-70
2023/01/16 00:26:23;;;;;;;10.32;3.28;;;;;;;;;;5052942;28;20079;-71
2023/01/16 00:28:49;;;;;;;7.03;3.05;;;;;;;;;;5053799;28;20470;-71
2023/01/16 00:31:15;;;;;;;10.00;3.40;;;;;;;;;;5036898;28;20047;-71
2023/01/16 00:33:42;;;;;;;7.00;3.03;;;;;;;;;;5053124;28;20036;-70
2023/01/16 00:36:09;;;;;;;6.50;3.08;;;;;;;;;;5052764;28;20045;-71
2023/01/16 00:38:35;;;;;;;8.73;3.10;;;;;;;;;;5053090;28;20413;-71
2023/01/16 00:41:01;;;;;;;8.00;3.20;;;;;;;;;;5053093;28;20129;-71
2023/01/16 00:43:27;;;;;;;10.07;3.10;;;;;;;;;;5052741;28;20049;-71
2023/01/16 00:45:54;;;;;;;8.80;3.00;;;;;;;;;;5053053;28;20037;-70
2023/01/16 00:48:20;;;;;;;7.03;2.78;;;;;;;;;;5052731;28;20049;-71
2023/01/16 00:50:46;;;;;;;7.57;2.90;;;;;;;;;;5053004;28;20064;-71
2023/01/16 00:53:12;;;;;;;6.00;2.78;;;;;;;;;;5036011;28;20398;-71
2023/01/16 00:55:38;;;;;;;9.82;3.08;;;;;;;;;;5054269;28;20045;-71
2023/01/16 00:58:04;;;;;;;11.32;2.95;;;;;;;;;;5052604;28;20072;-71
2023/01/16 01:00:31;;;;;;;9.73;3.03;;;;;;;;;;5052394;28;20049;-71
2023/01/16 01:02:57;;;;;;;10.80;3.45;;;;;;;;;;5035901;28;20041;-71
2023/01/16 01:05:23;;;;;;;8.05;2.78;;;;;;;;;;5035762;28;20116;-71
2023/01/16 01:07:49;;;;;;;8.25;2.90;;;;;;;;;;5052481;28;20045;-71
2023/01/16 01:10:15;;;;;;;6.03;2.83;;;;;;;;;;5035612;28;20044;-71
2023/01/16 01:12:41;;;;;;;11.68;3.33;;;;;;;;;;5052542;28;20086;-71
2023/01/16 01:15:07;;;;;;;9.02;3.53;;;;;;;;;;5035975;28;20040;-72
2023/01/16 01:17:33;;;;;;;10.02;3.47;;;;;;;;;;5052310;28;20452;-71
2023/01/16 01:19:59;;;;;;;10.18;3.80;;;;;;;;;;5053744;28;20032;-71
2023/01/16 01:22:26;;;;;;;10.25;3.25;;;;;;;;;;5051815;28;20102;-71
2023/01/16 01:24:52;;;;;;;12.52;3.30;;;;;;;;;;5052496;28;20446;-71
2023/01/16 01:27:19;;;;;;;9.95;3.30;;;;;;;;;;5051796;28;20099;-71
2023/01/16 01:29:45;;;;;;;10.55;3.40;;;;;;;;;;5052549;28;20047;-71
2023/01/16 01:32:11;;;;;;;10.18;3.35;;;;;;;;;;5052068;28;20055;-72
2023/01/16 01:34:37;;;;;;;7.85;3.25;;;;;;;;;;5035215;28;20071;-71
2023/01/16 01:37:07;;;;;;;10.60;3.45;;;;;;;;;;5051859;28;20045;-72
2023/01/16 01:39:33;;;;;;;12.10;3.30;;;;;;;;;;5051008;28;20045;-72
2023/01/16 01:44:54;;;;;;;11.65;3.65;;;;;;;;;;5038086;28;20382;-72
2023/01/16 01:47:22;;;;;;;13.27;3.53;;;;;;;;;;5034758;28;20048;-72
2023/01/16 01:49:49;;;;;;;8.52;3.50;;;;;;;;;;5052060;28;20048;-72
2023/01/16 01:52:15;;;;;;;9.68;3.95;;;;;;;;;;5051547;28;20072;-72
2023/01/16 01:54:44;;;;;;;7.25;3.40;;;;;;;;;;5051671;28;20094;-72
2023/01/16 01:57:22;;;;;;;12.73;3.70;;;;;;;;;;5051501;28;20041;-71
2023/01/16 01:59:56;;;;;;;12.50;3.72;;;;;;;;;;5039705;28;20405;-71
2023/01/16 02:02:24;;;;;;;13.00;3.33;;;;;;;;;;5051597;28;20458;-71
2023/01/16 02:04:51;;;;;;;9.10;3.13;;;;;;;;;;5051362;28;20041;-71
2023/01/16 02:07:18;;;;;;;11.88;4.00;;;;;;;;;;5052084;28;20575;-71
2023/01/16 02:09:45;;;;;;;8.50;3.55;;;;;;;;;;5051214;28;20045;-71
2023/01/16 02:12:12;;;;;;;10.15;3.90;;;;;;;;;;5052663;28;20052;-71
2023/01/16 02:14:39;;;;;;;8.63;3.63;;;;;;;;;;5050727;28;20049;-71
2023/01/16 02:19:57;;;;;;;13.40;4.38;;;;;;;;;;5051118;28;20040;-71
2023/01/16 02:22:42;;;;;;;13.73;4.07;;;;;;;;;;5050690;28;20053;-71
2023/01/16 02:25:26;;;;;;;11.27;4.15;;;;;;;;;;5050733;28;20045;-71
2023/01/16 02:27:55;;;;;;;14.70;4.43;;;;;;;;;;5051076;28;20037;-71
2023/01/16 02:30:41;;;;;;;10.52;4.25;;;;;;;;;;5051197;28;20474;-71
2023/01/16 02:33:16;;;;;;;12.38;4.50;;;;;;;;;;5034011;28;20055;-71
2023/01/16 02:36:08;;;;;;;12.88;5.15;;;;;;;;;;5034508;28;20493;-71
2023/01/16 02:38:40;;;;;;;11.07;4.20;;;;;;;;;;5050441;28;20037;-71
2023/01/16 02:41:16;;;;;;;9.07;4.25;;;;;;;;;;5052761;28;20123;-71
2023/01/16 02:43:42;;;;;;;11.98;3.47;;;;;;;;;;5051839;28;20068;-71
2023/01/16 02:46:20;;;;;;;8.50;4.00;;;;;;;;;;5052160;28;20102;-71
2023/01/16 02:49:05;;;;;;;13.60;5.15;;;;;;;;;;5050350;28;20041;-71
2023/01/16 02:51:32;;;;;;;9.02;4.43;;;;;;;;;;5050561;28;20036;-71
2023/01/16 02:53:58;;;;;;;10.68;5.00;;;;;;;;;;5050607;28;20045;-71
2023/01/16 02:56:27;;;;;;;11.27;5.40;;;;;;;;;;5050708;28;20044;-71
2023/01/16 02:58:53;;;;;;;14.73;6.10;;;;;;;;;;5051041;28;20052;-71
2023/01/16 03:01:19;;;;;;;14.63;5.75;;;;;;;;;;5048831;28;20045;-71
2023/01/16 03:03:55;;;;;;;9.82;5.15;;;;;;;;;;5046050;28;20049;-71
2023/01/16 03:06:21;;;;;;;9.73;4.80;;;;;;;;;;5050282;28;20044;-71
2023/01/16 03:08:54;;;;;;;11.98;6.07;;;;;;;;;;5049914;28;20502;-71
2023/01/16 03:11:23;;;;;;;14.15;5.85;;;;;;;;;;5050828;28;20466;-71
2023/01/16 03:14:07;;;;;;;14.93;6.47;;;;;;;;;;5051799;28;20409;-71
2023/01/16 03:16:37;;;;;;;15.60;6.68;;;;;;;;;;5038373;28;20123;-71
2023/01/16 03:19:13;;;;;;;14.43;6.78;;;;;;;;;;5051884;28;20041;-71
2023/01/16 03:21:51;;;;;;;13.57;6.68;;;;;;;;;;5050326;28;20099;-71
2023/01/16 03:24:17;;;;;;;17.55;6.97;;;;;;;;;;5050448;28;20120;-71
2023/01/16 03:26:46;;;;;;;18.80;7.47;;;;;;;;;;5050289;28;20079;-71
2023/01/16 03:29:12;;;;;;;19.13;7.88;;;;;;;;;;5050368;28;20036;-71
2023/01/16 03:31:41;;;;;;;17.10;8.38;;;;;;;;;;5050071;28;20045;-71
2023/01/16 03:34:20;;;;;;;19.45;7.90;;;;;;;;;;5050677;28;20056;-71
2023/01/16 03:37:05;;;;;;;21.48;8.77;;;;;;;;;;5020315;28;20107;-71
2023/01/16 03:39:34;;;;;;;20.80;9.00;;;;;;;;;;5049710;28;20044;-72
2023/01/16 03:42:02;;;;;;;18.35;8.65;;;;;;;;;;5050373;28;20037;-71
2023/01/16 03:44:31;;;;;;;19.35;8.68;;;;;;;;;;5050232;28;20128;-71
2023/01/16 03:46:59;;;;;;;19.50;9.75;;;;;;;;;;5053800;28;20032;-71
2023/01/16 03:49:28;;;;;;;18.67;9.00;;;;;;;;;;5037413;28;20040;-71
2023/01/16 03:51:59;;;;;;;22.33;9.27;;;;;;;;;;5037062;28;20037;-71
2023/01/16 03:54:25;;;;;;;19.73;9.30;;;;;;;;;;5055235;28;20581;-71
2023/01/16 03:57:13;;;;;;;17.58;8.85;;;;;;;;;;5053643;28;20124;-72
2023/01/16 03:59:40;;;;;;;21.45;9.90;;;;;;;;;;5042446;28;20083;-71
2023/01/16 04:02:12;;;;;;;19.33;9.02;;;;;;;;;;5037263;28;20052;-71
2023/01/16 04:04:43;;;;;;;19.33;9.70;;;;;;;;;;5053542;28;20063;-72
2023/01/16 04:07:11;;;;;;;22.42;10.98;;;;;;;;;;5053651;28;20098;-72
2023/01/16 04:09:47;;;;;;;22.40;10.60;;;;;;;;;;5053107;28;20091;-71
2023/01/16 04:12:17;;;;;;;25.45;11.20;;;;;;;;;;5053999;28;20559;-71
2023/01/16 04:14:45;;;;;;;24.60;11.68;;;;;;;;;;5054606;28;20094;-71
2023/01/16 04:17:11;;;;;;;25.55;11.88;;;;;;;;;;5053975;28;20455;-72
2023/01/16 04:19:37;;;;;;;26.23;11.25;;;;;;;;;;5054322;28;20501;-72
2023/01/16 04:22:07;;;;;;;27.02;12.10;;;;;;;;;;5055216;28;20044;-72
2023/01/16 04:24:34;;;;;;;30.17;13.30;;;;;;;;;;5053093;28;20049;-72
2023/01/16 04:27:00;;;;;;;29.00;13.50;;;;;;;;;;5053545;28;20128;-71
2023/01/16 04:29:26;;;;;;;33.20;13.55;;;;;;;;;;5053351;28;20037;-71
2023/01/16 04:31:52;;;;;;;27.98;13.55;;;;;;;;;;5053264;28;20494;-71
2023/01/16 04:34:18;;;;;;;27.23;13.20;;;;;;;;;;5053644;28;20045;-71
2023/01/16 04:36:45;;;;;;;25.27;13.10;;;;;;;;;;5036203;28;20119;-71
2023/01/16 04:39:11;;;;;;;27.77;13.35;;;;;;;;;;5054497;28;20095;-71
2023/01/16 04:41:37;;;;;;;30.45;13.35;;;;;;;;;;5053164;28;20546;-71
2023/01/16 04:44:04;;;;;;;27.00;13.15;;;;;;;;;;5053058;28;20098;-71
2023/01/16 04:46:30;;;;;;;27.17;12.73;;;;;;;;;;5036349;28;20045;-71
2023/01/16 04:48:56;;;;;;;25.27;12.43;;;;;;;;;;5054181;28;20497;-71
2023/01/16 04:51:22;;;;;;;22.20;11.77;;;;;;;;;;5052900;28;20048;-71
2023/01/16 04:53:48;;;;;;;27.10;12.55;;;;;;;;;;5052627;28;20146;-71
2023/01/16 04:56:14;;;;;;;26.67;12.05;;;;;;;;;;5085783;28;20060;-71
2023/01/16 04:58:40;;;;;;;21.90;12.85;;;;;;;;;;5053682;28;20640;-71
2023/01/16 05:01:06;;;;;;;27.08;12.68;;;;;;;;;;5052711;28;20041;-71
2023/01/16 05:03:32;;;;;;;26.45;13.73;;;;;;;;;;5052778;28;20127;-71
2023/01/16 05:05:58;;;;;;;28.73;12.13;;;;;;;;;;5051825;28;20044;-71
2023/01/16 05:08:27;;;;;;;24.80;12.25;;;;;;;;;;5052483;28;20053;-71
2023/01/16 05:10:53;;;;;;;27.77;12.50;;;;;;;;;;5051815;28;20087;-71
2023/01/16 05:13:20;;;;;;;23.65;11.15;;;;;;;;;;5052765;28;20052;-71
2023/01/16 05:15:46;;;;;;;24.40;12.40;;;;;;;;;;5052041;28;20047;-71
2023/01/16 05:18:12;;;;;;;24.65;11.88;;;;;;;;;;5053807;28;20041;-71
2023/01/16 05:20:38;;;;;;;29.80;12.43;;;;;;;;;;5052352;28;20103;-71
2023/01/16 05:23:05;;;;;;;27.15;12.25;;;;;;;;;;5051998;28;20057;-72
2023/01/16 05:25:31;;;;;;;25.55;11.77;;;;;;;;;;5052483;28;20080;-71
2023/01/16 05:27:57;;;;;;;29.20;12.18;;;;;;;;;;5051638;28;20037;-71
2023/01/16 05:30:23;;;;;;;25.75;12.25;;;;;;;;;;5035732;28;20064;-71
2023/01/16 05:32:49;;;;;;;26.23;12.38;;;;;;;;;;5051741;28;20041;-71
2023/01/16 05:35:15;;;;;;;24.67;11.68;;;;;;;;;;5052384;28;20052;-71
2023/01/16 05:37:42;;;;;;;25.27;11.18;;;;;;;;;;5053456;28;20052;-71
2023/01/16 05:40:08;;;;;;;21.48;10.95;;;;;;;;;;5051996;28;20504;-71
2023/01/16 05:42:34;;;;;;;24.92;9.85;;;;;;;;;;5052327;28;20552;-71
2023/01/16 05:45:01;;;;;;;23.75;10.57;;;;;;;;;;5051597;28;20041;-71
2023/01/16 05:47:27;;;;;;;21.77;9.98;;;;;;;;;;5051875;28;20048;-71
2023/01/16 05:49:53;;;;;;;21.52;9.50;;;;;;;;;;5051535;28;20079;-72
2023/01/16 05:52:19;;;;;;;24.38;9.32;;;;;;;;;;5053217;28;20043;-71
2023/01/16 05:54:45;;;;;;;15.60;8.77;;;;;;;;;;5051730;28;20052;-71
2023/01/16 05:57:12;;;;;;;19.25;9.23;;;;;;;;;;5050994;28;20045;-71
2023/01/16 05:59:38;;;;;;;24.60;9.93;;;;;;;;;;5035193;28;20080;-71
2023/01/16 06:02:07;;;;;;;20.30;9.63;;;;;;;;;;5070811;28;20040;-72
2023/01/16 06:04:33;;;;;;;24.73;9.57;;;;;;;;;;5071480;28;20041;-71
2023/01/16 06:06:59;;;;;;;21.83;10.23;;;;;;;;;;5071267;28;20040;-71
2023/01/16 06:09:25;;;;;;;18.83;8.25;;;;;;;;;;5070691;28;20061;-71
2023/01/16 06:11:51;;;;;;;19.30;8.48;;;;;;;;;;5054188;28;20040;-72
2023/01/16 06:14:17;;;;;;;17.63;7.95;;;;;;;;;;5071278;28;20090;-72
2023/01/16 06:16:43;;;;;;;16.08;7.57;;;;;;;;;;5071301;28;20493;-72
2023/01/16 06:19:09;;;;;;;17.25;7.32;;;;;;;;;;5071373;28;20449;-72
2023/01/16 06:21:35;;;;;;;17.63;6.43;;;;;;;;;;5072697;28;20055;-72
2023/01/16 06:24:01;;;;;;;18.40;7.20;;;;;;;;;;5070666;28;20040;-72
2023/01/16 06:26:27;;;;;;;20.80;7.15;;;;;;;;;;5054648;28;20041;-71
2023/01/16 06:28:55;;;;;;;14.02;6.50;;;;;;;;;;5071862;28;20047;-71
2023/01/16 06:31:22;;;;;;;16.08;6.35;;;;;;;;;;5071353;28;20389;-71
2023/01/16 06:33:48;;;;;;;14.23;6.28;;;;;;;;;;5067697;28;20553;-71
2023/01/16 06:36:14;;;;;;;16.70;5.80;;;;;;;;;;5070918;28;20385;-71
2023/01/16 06:38:40;;;;;;;18.20;7.07;;;;;;;;;;5054263;28;20119;-72
2023/01/16 06:41:06;;;;;;;15.80;6.28;;;;;;;;;;5070379;28;20036;-71
2023/01/16 06:43:32;;;;;;;16.00;5.40;;;;;;;;;;5070728;28;20040;-71
2023/01/16 06:45:58;;;;;;;11.40;5.35;;;;;;;;;;5054309;28;20049;-71
2023/01/16 06:48:27;;;;;;;14.50;5.15;;;;;;;;;;5076067;28;20502;-71
2023/01/16 06:50:59;;;;;;;14.65;5.05;;;;;;;;;;5050728;28;20406;-71
2023/01/16 06:53:25;;;;;;;14.77;4.35;;;;;;;;;;5050826;28;20062;-71
2023/01/16 06:55:51;;;;;;;10.82;4.60;;;;;;;;;;5050672;28;20045;-71
2023/01/16 06:58:26;;;;;;;11.60;5.18;;;;;;;;;;5033693;28;20041;-71
2023/01/16 07:00:54;;;;;;;10.05;4.43;;;;;;;;;;5052115;28;20398;-71
2023/01/16 07:03:21;;;;;;;13.35;3.80;;;;;;;;;;5034485;28;20032;-71
2023/01/16 07:05:47;;;;;;;11.55;3.83;;;;;;;;;;5052032;28;20041;-71
2023/01/16 07:08:13;;;;;;;11.70;4.55;;;;;;;;;;5051197;28;20049;-71
2023/01/16 07:10:39;;;;;;;9.50;3.28;;;;;;;;;;5034168;28;20049;-71
2023/01/16 07:13:05;;;;;;;8.80;4.25;;;;;;;;;;5050617;28;20488;-71
2023/01/16 07:24:07;;;;;;;10.38;3.85;;;;;;;;;;5054525;28;20037;-71
2023/01/16 07:26:35;;;;;;;10.93;3.55;;;;;;;;;;5054878;28;20037;-71
2023/01/16 07:29:02;;;;;;;10.43;3.72;;;;;;;;;;5054150;28;20460;-71
2023/01/16 07:31:29;;;;;;;10.05;3.10;;;;;;;;;;5021773;28;20528;-71
2023/01/16 07:33:55;;;;;;;9.88;3.50;;;;;;;;;;5055919;28;20037;-71
2023/01/16 07:36:21;;;;;;;9.00;3.45;;;;;;;;;;5054214;28;20100;-71
2023/01/16 07:38:47;;;;;;;10.55;3.78;;;;;;;;;;5054350;28;20127;-71
2023/01/16 07:41:14;;;;;;;9.15;2.97;;;;;;;;;;5054162;28;20521;-72
2023/01/16 07:43:40;;;;;;;7.65;2.63;;;;;;;;;;5021489;28;20102;-72
2023/01/16 07:46:06;;;;;;;9.65;2.92;;;;;;;;;;5053745;28;20071;-72
2023/01/16 07:48:32;;;;;;;9.52;3.13;;;;;;;;;;5054330;28;20040;-71
2023/01/16 07:50:59;;;;;;;11.45;4.60;;;;;;;;;;5054167;28;20033;-71
2023/01/16 07:53:26;;;;;;;13.30;3.10;;;;;;;;;;5055233;28;20512;-71
2023/01/16 07:55:53;;;;;;;9.13;3.20;;;;;;;;;;5054243;28;20482;-71
2023/01/16 07:58:20;;;;;;;10.25;3.70;;;;;;;;;;5053996;28;20475;-71
2023/01/16 08:00:47;;;;;;;10.85;3.13;;;;;;;;;;5055275;28;20072;-71
2023/01/16 08:03:14;;;;;;;6.43;3.50;;;;;;;;;;5055039;28;20442;-71
2023/01/16 08:05:44;;;;;;;8.55;3.75;;;;;;;;;;5053784;28;20091;-72
2023/01/16 08:08:11;;;;;;;6.22;3.05;;;;;;;;;;5054447;28;20053;-72
2023/01/16 08:10:37;;;;;;;11.68;3.75;;;;;;;;;;5068495;28;20405;-71
2023/01/16 08:13:03;;;;;;;11.27;3.95;;;;;;;;;;5073539;28;20041;-72
2023/01/16 08:15:29;;;;;;;11.80;4.20;;;;;;;;;;5057046;28;20048;-72
2023/01/16 08:17:56;;;;;;;11.20;4.22;;;;;;;;;;5073775;28;20076;-71
2023/01/16 08:20:22;;;;;;;8.35;4.10;;;;;;;;;;5073550;28;20477;-72
2023/01/16 08:22:50;;;;;;;11.02;4.63;;;;;;;;;;5073775;28;20382;-72
2023/01/16 08:25:16;;;;;;;9.93;4.30;;;;;;;;;;5072794;28;20040;-72
2023/01/16 08:27:43;;;;;;;15.23;4.80;;;;;;;;;;5056770;28;20090;-72
2023/01/16 08:30:11;;;;;;;9.45;4.97;;;;;;;;;;5072857;28;20105;-72
2023/01/16 08:32:37;;;;;;;15.18;4.72;;;;;;;;;;5073878;28;20036;-71
2023/01/16 08:35:04;;;;;;;11.27;4.78;;;;;;;;;;5059941;28;20045;-71
2023/01/16 08:37:30;;;;;;;10.93;4.65;;;;;;;;;;5073151;28;20493;-72
2023/01/16 08:39:56;;;;;;;10.68;4.85;;;;;;;;;;5073163;28;20052;-72
2023/01/16 08:53:26;;;;;;;8.98;4.50;;;;;;;;;;5052815;28;20041;-72
2023/01/16 08:55:52;;;;;;;11.73;5.50;;;;;;;;;;5036103;28;20040;-71
2023/01/16 08:58:20;;;;;;;12.43;5.18;;;;;;;;;;5052540;28;20040;-72
2023/01/16 09:00:47;;;;;;;12.38;5.65;;;;;;;;;;5052566;28;20083;-72
2023/01/16 09:03:13;;;;;;;10.80;5.25;;;;;;;;;;5052351;28;20120;-72
2023/01/16 09:05:39;;;;;;;11.35;5.35;;;;;;;;;;5053837;28;20041;-72
2023/01/16 09:08:05;;;;;;;9.95;4.95;;;;;;;;;;5052524;28;20494;-72
2023/01/16 09:10:31;;;;;;;10.52;5.32;;;;;;;;;;5051907;28;20049;-72
2023/01/16 09:15:42;;;;;;;7.35;4.10;;;;;;;;;;5052345;28;20053;-72
2023/01/16 09:18:08;;;;;;;10.23;5.10;;;;;;;;;;5035860;28;20070;-72
2023/01/16 09:20:34;;;;;;;11.10;4.80;;;;;;;;;;5052036;28;20170;-72
2023/01/16 09:23:01;;;;;;;9.20;4.57;;;;;;;;;;5052864;28;20473;-72
2023/01/16 09:25:28;;;;;;;7.78;4.38;;;;;;;;;;5052373;28;20421;-72
2023/01/16 09:27:54;;;;;;;8.35;4.22;;;;;;;;;;5052405;28;20044;-72
2023/01/16 09:30:20;;;;;;;11.18;4.22;;;;;;;;;;5051858;28;20055;-72
2023/01/16 09:32:47;;;;;;;11.27;4.60;;;;;;;;;;5019298;28;20033;-71
2023/01/16 09:35:13;;;;;;;9.93;4.13;;;;;;;;;;5052155;28;20120;-71
2023/01/16 09:37:40;;;;;;;6.15;3.00;;;;;;;;;;5053584;28;20041;-71
2023/01/16 09:40:10;;;;;;;11.48;3.95;;;;;;;;;;5052127;28;20452;-72
2023/01/16 09:45:33;;;;;;;8.20;3.57;;;;;;;;;;5051640;28;20052;-71
2023/01/16 09:48:02;;;;;;;7.43;4.00;;;;;;;;;;5053238;28;20039;-72
2023/01/16 09:50:39;;;;;;;7.70;3.70;;;;;;;;;;5034967;28;20041;-72
2023/01/16 09:58:43;;;;;;;6.90;3.20;;;;;;;;;;5051465;28;20144;-72
2023/01/16 10:01:12;;;;;;;6.80;3.40;;;;;;;;;;5051644;28;20080;-72
2023/01/16 10:03:42;;;;;;;5.65;2.80;;;;;;;;;;5051103;28;20040;-72
2023/01/16 10:06:14;;;;;;;7.40;2.90;;;;;;;;;;5051895;28;20037;-72
2023/01/16 10:08:46;;;;;;;9.52;2.90;;;;;;;;;;5051005;28;20045;-72
2023/01/16 10:11:23;;;;;;;7.95;2.60;;;;;;;;;;5034803;28;20037;-72
2023/01/16 10:13:49;;;;;;;4.07;2.25;;;;;;;;;;5051428;28;20037;-72
2023/01/16 10:16:34;;;;;;;3.97;2.47;;;;;;;;;;5051628;28;20119;-72
2023/01/16 10:19:13;;;;;;;3.75;1.88;;;;;;;;;;5051211;28;20047;-72
2023/01/16 10:21:45;;;;;;;6.30;2.15;;;;;;;;;;5051182;28;20043;-72
2023/01/16 10:24:11;;;;;;;3.20;1.80;;;;;;;;;;5051306;28;20040;-72
2023/01/16 10:26:43;;;;;;;4.43;2.22;;;;;;;;;;5050904;28;20040;-73
2023/01/16 10:29:18;;;;;;;4.18;2.05;;;;;;;;;;5051202;28;20037;-72
2023/01/16 10:31:57;;;;;;;3.35;1.98;;;;;;;;;;5051077;28;20448;-73
2023/01/16 10:34:28;;;;;;;5.57;2.10;;;;;;;;;;5034278;28;20048;-72
2023/01/16 10:36:57;;;;;;;4.22;1.70;;;;;;;;;;5051180;28;20041;-72
2023/01/16 10:39:25;;;;;;;4.25;2.10;;;;;;;;;;5051000;28;20120;-73
2023/01/16 10:50:43;;;;;;;4.18;2.33;;;;;;;;;;5050454;28;20076;-72
2023/01/16 10:53:10;;;;;;;3.92;2.05;;;;;;;;;;5034351;28;20048;-73
2023/01/16 10:55:38;;;;;;;3.13;2.00;;;;;;;;;;5033744;28;20504;-73
2023/01/16 10:58:19;;;;;;;3.13;1.45;;;;;;;;;;5052150;28;20076;-73
2023/01/16 11:00:46;;;;;;;4.25;2.10;;;;;;;;;;5033654;28;20076;-73
2023/01/16 11:03:16;;;;;;;3.13;1.95;;;;;;;;;;5051053;28;20464;-73
2023/01/16 11:05:43;;;;;;;4.75;2.38;;;;;;;;;;5050244;28;20064;-73
2023/01/16 11:08:12;;;;;;;3.38;2.00;;;;;;;;;;5050547;28;20098;-73
2023/01/16 11:10:39;;;;;;;3.60;2.28;;;;;;;;;;5050214;28;20190;-73
2023/01/16 11:18:53;;;;;;;3.55;2.35;;;;;;;;;;5050778;28;20490;-72
2023/01/16 11:21:30;;;;;;;4.38;2.53;;;;;;;;;;5050753;28;20044;-72
2023/01/16 11:23:58;;;;;;;5.10;2.63;;;;;;;;;;5050755;28;20477;-73
2023/01/16 11:26:24;;;;;;;5.40;2.88;;;;;;;;;;5050858;28;20398;-72
2023/01/16 11:28:52;;;;;;;4.80;3.17;;;;;;;;;;5050348;28;20044;-72
2023/01/16 11:31:23;;;;;;;5.03;2.58;;;;;;;;;;5050650;28;20044;-72
2023/01/16 11:34:00;;;;;;;4.80;2.83;;;;;;;;;;5050066;28;20029;-72
2023/01/16 11:36:28;;;;;;;6.65;2.60;;;;;;;;;;5051787;28;20433;-73
2023/01/16 11:38:54;;;;;;;4.90;2.92;;;;;;;;;;5050293;28;20056;-73
2023/01/16 11:41:23;;;;;;;7.13;3.28;;;;;;;;;;5050683;28;20514;-73
2023/01/16 11:46:57;;;;;;;6.15;3.15;;;;;;;;;;5049756;28;20068;-73
2023/01/16 11:49:25;;;;;;;6.18;3.28;;;;;;;;;;5050991;28;20044;-73
2023/01/16 11:51:54;;;;;;;7.03;3.25;;;;;;;;;;5050241;28;20478;-73
2023/01/16 11:54:25;;;;;;;5.60;3.30;;;;;;;;;;5050562;28;20465;-73
2023/01/16 11:56:58;;;;;;;6.90;3.78;;;;;;;;;;5050037;28;20032;-72
2023/01/16 11:59:27;;;;;;;6.93;3.90;;;;;;;;;;5017666;28;20044;-74
2023/01/16 12:02:18;;;;;;;6.00;3.60;;;;;;;;;;5043211;28;20052;-73
2023/01/16 12:07:44;;;;;;;5.80;3.75;;;;;;;;;;5072354;28;20048;-73
2023/01/16 12:10:46;;;;;;;6.93;4.22;;;;;;;;;;5074851;28;20054;-73
2023/01/16 12:16:13;;;;;;;9.80;4.15;;;;;;;;;;5071135;28;20570;-73
2023/01/16 12:18:47;;;;;;;8.25;3.38;;;;;;;;;;5073118;28;20040;-73
2023/01/16 12:21:29;;;;;;;5.47;3.83;;;;;;;;;;5073515;28;20043;-73
2023/01/16 12:24:09;;;;;;;8.23;4.70;;;;;;;;;;5072982;28;20052;-73
2023/01/16 12:27:00;;;;;;;7.80;3.97;;;;;;;;;;5073651;28;20134;-73
2023/01/16 12:29:33;;;;;;;6.28;3.80;;;;;;;;;;5068715;28;20506;-73
2023/01/16 12:32:02;;;;;;;8.40;4.43;;;;;;;;;;5073390;28;20040;-73
2023/01/16 12:34:32;;;;;;;7.03;4.28;;;;;;;;;;5068008;28;20082;-73
2023/01/16 12:37:12;;;;;;;10.18;5.20;;;;;;;;;;5073339;28;20468;-73
2023/01/16 12:39:47;;;;;;;7.10;4.00;;;;;;;;;;5072877;28;20076;-73
2023/01/16 12:45:16;;;;;;;8.48;4.97;;;;;;;;;;5053565;28;20040;-73
2023/01/16 12:47:47;;;;;;;11.00;5.03;;;;;;;;;;5065280;28;20449;-73
2023/01/16 12:50:31;;;;;;;9.50;6.03;;;;;;;;;;5054493;28;20497;-73
2023/01/16 12:52:57;;;;;;;7.00;5.15;;;;;;;;;;5052603;28;20048;-74
2023/01/16 12:55:39;;;;;;;8.60;5.32;;;;;;;;;;5052913;28;20044;-74
2023/01/16 12:58:11;;;;;;;9.25;5.93;;;;;;;;;;5052817;28;20041;-73
2023/01/16 13:00:42;;;;;;;7.82;5.32;;;;;;;;;;5052860;28;20056;-74
2023/01/16 13:03:11;;;;;;;8.63;5.70;;;;;;;;;;5052914;28;20045;-74
2023/01/16 13:05:39;;;;;;;8.02;4.90;;;;;;;;;;5052639;28;20195;-74
2023/01/16 13:08:24;;;;;;;10.05;6.03;;;;;;;;;;5052225;28;20041;-74
2023/01/16 13:13:45;;;;;;;9.68;6.43;;;;;;;;;;5072720;28;20093;-73
2023/01/16 13:16:17;;;;;;;10.00;5.28;;;;;;;;;;5073971;28;20048;-73
2023/01/16 13:18:50;;;;;;;9.27;5.75;;;;;;;;;;5045757;28;20041;-74
2023/01/16 13:21:21;;;;;;;9.93;5.63;;;;;;;;;;5056175;28;20045;-73
2023/01/16 13:23:59;;;;;;;10.65;6.55;;;;;;;;;;5044977;28;20120;-73
2023/01/16 13:26:27;;;;;;;8.10;5.28;;;;;;;;;;5072255;28;20127;-73
2023/01/16 13:29:05;;;;;;;9.15;6.60;;;;;;;;;;5073192;28;20120;-73
2023/01/16 13:31:34;;;;;;;8.82;5.85;;;;;;;;;;5072752;28;20504;-73
2023/01/16 13:34:15;;;;;;;9.63;6.50;;;;;;;;;;5066104;28;20048;-73
2023/01/16 13:36:41;;;;;;;8.65;5.20;;;;;;;;;;5067026;28;20039;-73
2023/01/16 13:39:26;;;;;;;11.88;7.45;;;;;;;;;;5071641;28;20067;-73
2023/01/16 13:41:52;;;;;;;10.70;6.38;;;;;;;;;;5072003;28;20508;-73
2023/01/16 13:47:05;;;;;;;;;;;;;;;;;;5068926;28;20348;-73
2023/01/16 13:49:31;;;;;;;6.15;3.65;;;;;;;;;;5035445;28;19923;-72
2023/01/16 13:51:57;;;;;;;9.10;4.93;;;;;;;;;;5052754;28;20037;-72
2023/01/16 13:54:26;;;;;;;11.35;5.75;;;;;;;;;;5035512;28;20394;-72
2023/01/16 13:57:00;;;;;;;11.02;5.93;;;;;;;;;;5051466;28;20080;-72
2023/01/16 13:59:35;;;;;;;8.82;5.40;;;;;;;;;;5039154;28;20041;-73
2023/01/16 14:02:01;;;;;;;8.68;5.63;;;;;;;;;;5051240;28;20044;-73
2023/01/16 14:04:30;;;;;;;10.40;7.15;;;;;;;;;;5051683;28;20037;-73
2023/01/16 14:10:15;;;;;;;8.77;5.00;;;;;;;;;;5050784;28;20141;-73
2023/01/16 14:13:00;;;;;;;7.47;4.78;;;;;;;;;;5051723;28;20456;-73
2023/01/16 14:18:16;;;;;;;10.43;6.55;;;;;;;;;;5038888;28;20052;-73
2023/01/16 14:20:48;;;;;;;8.63;4.43;;;;;;;;;;5051281;28;20127;-73
2023/01/16 14:26:16;;;;;;;6.78;4.65;;;;;;;;;;5050730;28;20098;-73
2023/01/16 14:28:47;;;;;;;7.88;4.45;;;;;;;;;;5051014;28;20048;-73
2023/01/16 14:31:21;;;;;;;9.90;5.20;;;;;;;;;;5050535;28;20059;-73
2023/01/16 14:33:48;;;;;;;7.82;5.40;;;;;;;;;;5051346;28;20037;-73
2023/01/16 14:36:14;;;;;;;7.60;4.38;;;;;;;;;;5050524;28;20045;-73
2023/01/16 14:38:45;;;;;;;8.48;4.35;;;;;;;;;;5051198;28;20460;-73
2023/01/16 14:55:48;;;;;;;6.90;3.63;;;;;;;;;;5050662;28;20041;-73
2023/01/16 14:58:16;;;;;;;7.97;3.97;;;;;;;;;;5050789;28;20053;-73
2023/01/16 15:00:43;;;;;;;6.82;4.00;;;;;;;;;;5034311;28;20516;-73
2023/01/16 15:03:14;;;;;;;7.13;3.70;;;;;;;;;;5051070;28;20049;-73
2023/01/16 15:05:53;;;;;;;6.80;3.70;;;;;;;;;;5050689;28;20080;-73
2023/01/16 15:08:25;;;;;;;8.40;4.70;;;;;;;;;;5050644;28;20049;-73
2023/01/16 15:10:53;;;;;;;8.27;4.18;;;;;;;;;;5050628;28;20041;-73
2023/01/16 15:13:24;;;;;;;6.47;4.28;;;;;;;;;;5050283;28;20045;-73
2023/01/16 15:15:56;;;;;;;7.22;3.95;;;;;;;;;;5050508;28;20128;-73
2023/01/16 15:23:59;;;;;;;5.93;3.50;;;;;;;;;;5050110;28;20106;-73
2023/01/16 15:26:30;;;;;;;8.18;4.20;;;;;;;;;;5050452;28;20082;-73
2023/01/16 15:29:11;;;;;;;7.38;3.67;;;;;;;;;;5051174;28;20481;-73
2023/01/16 15:31:39;;;;;;;6.32;4.55;;;;;;;;;;5034299;28;20052;-73
2023/01/16 15:34:15;;;;;;;9.23;6.78;;;;;;;;;;5050828;28;20120;-73
2023/01/16 15:36:42;;;;;;;10.95;5.78;;;;;;;;;;5050656;28;20422;-73
2023/01/16 15:39:17;;;;;;;12.57;8.82;;;;;;;;;;5033924;28;20037;-73
2023/01/16 15:47:14;;;;;;;13.48;9.57;;;;;;;;;;5055142;28;20043;-73
2023/01/16 15:49:43;;;;;;;8.38;4.53;;;;;;;;;;5054294;28;20052;-72
2023/01/16 15:52:09;;;;;;;11.73;7.75;;;;;;;;;;5053707;28;20112;-73
2023/01/16 15:54:37;;;;;;;22.60;11.35;;;;;;;;;;5053915;28;20037;-73
2023/01/16 15:57:04;;;;;;;9.35;6.25;;;;;;;;;;5053662;28;20049;-73
2023/01/16 15:59:33;;;;;;;7.05;4.75;;;;;;;;;;5054360;28;20410;-73
2023/01/16 16:02:16;;;;;;;7.55;6.10;;;;;;;;;;5037543;28;20080;-73
2023/01/16 16:04:42;;;;;;;11.13;7.07;;;;;;;;;;5053893;28;20041;-73
2023/01/16 16:07:08;;;;;;;6.40;5.03;;;;;;;;;;5036736;28;20068;-73
2023/01/16 16:09:35;;;;;;;6.72;4.43;;;;;;;;;;5053900;28;20084;-73
2023/01/16 16:12:02;;;;;;;7.20;4.90;;;;;;;;;;5053896;28;20098;-73
2023/01/16 16:20:21;;;;;;;5.40;3.53;;;;;;;;;;5042471;28;20040;-72
2023/01/16 16:22:47;;;;;;;7.93;4.75;;;;;;;;;;5053716;28;20045;-73
2023/01/16 16:25:22;;;;;;;7.38;4.50;;;;;;;;;;5053227;28;20040;-73
2023/01/16 16:27:48;;;;;;;12.53;6.67;;;;;;;;;;5053377;28;20120;-73
2023/01/16 16:30:20;;;;;;;7.35;4.60;;;;;;;;;;5053308;28;20076;-73
2023/01/16 16:32:46;;;;;;;8.70;5.63;;;;;;;;;;5053611;28;20494;-73
2023/01/16 16:35:21;;;;;;;8.32;5.43;;;;;;;;;;5052992;28;20116;-73
2023/01/16 16:37:47;;;;;;;7.15;4.22;;;;;;;;;;5053064;28;20048;-73